sensor_id;sensor_type;location;lat;lon;timestamp;temperature;humidity
4187;DHT22;2107;52.306;10.484;2022-07-23T00:01:44;14.10;99.90
4187;DHT22;2107;52.306;10.484;2022-07-23T00:04:13;14.10;99.90
4187;DHT22;2107;52.306;10.484;2022-07-23T00:06:40;14.10;99.90
4187;DHT22;2107;52.306;10.484;2022-07-23T00:09:07;14.10;99.90
4187;DHT22;2107;52.306;10.484;2022-07-23T00:11:34;14.10;99.90
4187;DHT22;2107;52.306;10.484;2022-07-23T00:14:00;13.90;99.90
4187;DHT22;2107;52.306;10.484;2022-07-23T00:16:29;13.70;99.90
4187;DHT22;2107;52.306;10.484;2022-07-23T00:18:56;13.60;99.90
4187;DHT22;2107;52.306;10.484;2022-07-23T00:21:23;13.60;99.90
4187;DHT22;2107;52.306;10.484;2022-07-23T00:23:49;13.60;99.90
4187;DHT22;2107;52.306;10.484;2022-07-23T00:26:16;13.60;99.90
4187;DHT22;2107;52.306;10.484;2022-07-23T00:28:43;13.70;99.90
4187;DHT22;2107;52.306;10.484;2022-07-23T00:31:10;13.70;99.90
4187;DHT22;2107;52.306;10.484;2022-07-23T00:33:38;13.60;99.90
4187;DHT22;2107;52.306;10.484;2022-07-23T00:36:06;13.60;99.90
4187;DHT22;2107;52.306;10.484;2022-07-23T00:38:33;13.60;99.90
4187;DHT22;2107;52.306;10.484;2022-07-23T00:41:00;13.60;99.90
4187;DHT22;2107;52.306;10.484;2022-07-23T00:43:27;13.60;99.90
4187;DHT22;2107;52.306;10.484;2022-07-23T00:45:54;13.60;99.90
4187;DHT22;2107;52.306;10.484;2022-07-23T00:48:21;13.60;99.90
4187;DHT22;2107;52.306;10.484;2022-07-23T00:50:49;13.60;99.90
4187;DHT22;2107;52.306;10.484;2022-07-23T00:53:16;13.50;99.90
4187;DHT22;2107;52.306;10.484;2022-07-23T00:55:43;13.60;99.90
4187;DHT22;2107;52.306;10.484;2022-07-23T00:58:11;13.50;99.90
4187;DHT22;2107;52.306;10.484;2022-07-23T01:00:39;13.50;99.90
4187;DHT22;2107;52.306;10.484;2022-07-23T01:03:06;13.50;99.90
4187;DHT22;2107;52.306;10.484;2022-07-23T01:05:33;13.40;99.90
4187;DHT22;2107;52.306;10.484;2022-07-23T01:08:02;13.40;99.90
4187;DHT22;2107;52.306;10.484;2022-07-23T01:10:29;13.30;99.90
4187;DHT22;2107;52.306;10.484;2022-07-23T01:12:59;13.40;99.90
4187;DHT22;2107;52.306;10.484;2022-07-23T01:15:27;13.40;99.90
4187;DHT22;2107;52.306;10.484;2022-07-23T01:17:54;13.50;99.90
4187;DHT22;2107;52.306;10.484;2022-07-23T01:20:21;13.60;99.90
4187;DHT22;2107;52.306;10.484;2022-07-23T01:22:50;13.50;99.90
4187;DHT22;2107;52.306;10.484;2022-07-23T01:25:17;13.60;99.90
4187;DHT22;2107;52.306;10.484;2022-07-23T01:27:44;13.60;99.90
4187;DHT22;2107;52.306;10.484;2022-07-23T01:30:12;13.60;99.90
4187;DHT22;2107;52.306;10.484;2022-07-23T01:32:39;13.60;99.90
4187;DHT22;2107;52.306;10.484;2022-07-23T01:35:07;13.70;99.90
4187;DHT22;2107;52.306;10.484;2022-07-23T01:37:34;13.60;99.90
4187;DHT22;2107;52.306;10.484;2022-07-23T01:40:03;13.70;99.90
4187;DHT22;2107;52.306;10.484;2022-07-23T01:42:30;13.60;99.90
4187;DHT22;2107;52.306;10.484;2022-07-23T01:44:57;13.60;99.90
4187;DHT22;2107;52.306;10.484;2022-07-23T01:47:24;13.60;99.90
4187;DHT22;2107;52.306;10.484;2022-07-23T01:49:52;13.70;99.90
4187;DHT22;2107;52.306;10.484;2022-07-23T01:52:19;13.70;99.90
4187;DHT22;2107;52.306;10.484;2022-07-23T01:54:46;13.80;99.90
4187;DHT22;2107;52.306;10.484;2022-07-23T01:57:14;13.70;99.90
4187;DHT22;2107;52.306;10.484;2022-07-23T01:59:41;13.60;99.90
4187;DHT22;2107;52.306;10.484;2022-07-23T02:02:08;13.50;99.90
4187;DHT22;2107;52.306;10.484;2022-07-23T02:04:35;13.50;99.90
4187;DHT22;2107;52.306;10.484;2022-07-23T02:07:02;13.50;99.90
4187;DHT22;2107;52.306;10.484;2022-07-23T02:09:29;13.50;99.90
4187;DHT22;2107;52.306;10.484;2022-07-23T02:11:56;13.40;99.90
4187;DHT22;2107;52.306;10.484;2022-07-23T02:14:25;13.40;99.90
4187;DHT22;2107;52.306;10.484;2022-07-23T02:16:52;13.40;99.90
4187;DHT22;2107;52.306;10.484;2022-07-23T02:19:19;13.40;99.90
4187;DHT22;2107;52.306;10.484;2022-07-23T02:21:46;13.30;99.90
4187;DHT22;2107;52.306;10.484;2022-07-23T02:24:13;13.30;99.90
4187;DHT22;2107;52.306;10.484;2022-07-23T02:26:40;13.30;99.90
4187;DHT22;2107;52.306;10.484;2022-07-23T02:29:07;13.10;99.90
4187;DHT22;2107;52.306;10.484;2022-07-23T02:31:35;13.10;99.90
4187;DHT22;2107;52.306;10.484;2022-07-23T02:34:03;13.00;99.90
4187;DHT22;2107;52.306;10.484;2022-07-23T02:36:30;13.00;99.90
4187;DHT22;2107;52.306;10.484;2022-07-23T02:38:57;13.10;99.90
4187;DHT22;2107;52.306;10.484;2022-07-23T02:41:24;13.10;99.90
4187;DHT22;2107;52.306;10.484;2022-07-23T02:43:51;13.10;99.90
4187;DHT22;2107;52.306;10.484;2022-07-23T02:46:21;13.20;99.90
4187;DHT22;2107;52.306;10.484;2022-07-23T02:48:49;13.20;99.90
4187;DHT22;2107;52.306;10.484;2022-07-23T02:51:16;13.20;99.90
4187;DHT22;2107;52.306;10.484;2022-07-23T02:53:43;13.20;99.90
4187;DHT22;2107;52.306;10.484;2022-07-23T02:56:10;13.20;99.90
4187;DHT22;2107;52.306;10.484;2022-07-23T02:58:37;13.20;99.90
4187;DHT22;2107;52.306;10.484;2022-07-23T03:01:04;13.10;99.90
4187;DHT22;2107;52.306;10.484;2022-07-23T03:03:31;13.10;99.90
4187;DHT22;2107;52.306;10.484;2022-07-23T03:06:00;13.10;99.90
4187;DHT22;2107;52.306;10.484;2022-07-23T03:08:26;13.10;99.90
4187;DHT22;2107;52.306;10.484;2022-07-23T03:10:53;13.20;99.90
4187;DHT22;2107;52.306;10.484;2022-07-23T03:13:20;13.30;99.90
4187;DHT22;2107;52.306;10.484;2022-07-23T03:15:47;13.30;99.90
4187;DHT22;2107;52.306;10.484;2022-07-23T03:18:14;13.30;99.90
4187;DHT22;2107;52.306;10.484;2022-07-23T03:20:41;13.40;99.90
4187;DHT22;2107;52.306;10.484;2022-07-23T03:23:09;13.40;99.90
4187;DHT22;2107;52.306;10.484;2022-07-23T03:25:36;13.50;99.90
4187;DHT22;2107;52.306;10.484;2022-07-23T03:28:04;13.50;99.90
4187;DHT22;2107;52.306;10.484;2022-07-23T03:30:31;13.60;99.90
4187;DHT22;2107;52.306;10.484;2022-07-23T03:32:58;13.60;99.90
4187;DHT22;2107;52.306;10.484;2022-07-23T03:35:25;13.60;99.90
4187;DHT22;2107;52.306;10.484;2022-07-23T03:37:51;13.60;99.90
4187;DHT22;2107;52.306;10.484;2022-07-23T03:40:20;13.70;99.90
4187;DHT22;2107;52.306;10.484;2022-07-23T03:42:47;13.80;99.90
4187;DHT22;2107;52.306;10.484;2022-07-23T03:45:14;13.80;99.90
4187;DHT22;2107;52.306;10.484;2022-07-23T03:47:40;13.90;99.90
4187;DHT22;2107;52.306;10.484;2022-07-23T03:50:09;14.00;99.90
4187;DHT22;2107;52.306;10.484;2022-07-23T03:52:36;14.00;99.90
4187;DHT22;2107;52.306;10.484;2022-07-23T03:55:03;13.90;99.90
4187;DHT22;2107;52.306;10.484;2022-07-23T03:57:32;13.90;99.90
4187;DHT22;2107;52.306;10.484;2022-07-23T03:59:59;13.90;99.90
4187;DHT22;2107;52.306;10.484;2022-07-23T04:02:26;14.00;99.90
4187;DHT22;2107;52.306;10.484;2022-07-23T04:04:53;14.00;99.90
4187;DHT22;2107;52.306;10.484;2022-07-23T04:07:20;13.90;99.90
4187;DHT22;2107;52.306;10.484;2022-07-23T04:09:47;13.90;99.90
4187;DHT22;2107;52.306;10.484;2022-07-23T04:12:14;14.00;99.90
4187;DHT22;2107;52.306;10.484;2022-07-23T04:14:43;14.10;99.90
4187;DHT22;2107;52.306;10.484;2022-07-23T04:17:10;14.20;99.90
4187;DHT22;2107;52.306;10.484;2022-07-23T04:19:37;14.20;99.90
4187;DHT22;2107;52.306;10.484;2022-07-23T04:22:06;14.30;99.90
4187;DHT22;2107;52.306;10.484;2022-07-23T04:24:33;14.50;99.90
4187;DHT22;2107;52.306;10.484;2022-07-23T04:27:01;14.40;99.90
4187;DHT22;2107;52.306;10.484;2022-07-23T04:29:28;14.40;99.90
4187;DHT22;2107;52.306;10.484;2022-07-23T04:31:56;14.30;99.90
4187;DHT22;2107;52.306;10.484;2022-07-23T04:34:23;14.40;99.90
4187;DHT22;2107;52.306;10.484;2022-07-23T04:36:52;14.50;99.90
4187;DHT22;2107;52.306;10.484;2022-07-23T04:39:19;14.50;99.90
4187;DHT22;2107;52.306;10.484;2022-07-23T04:41:46;14.50;99.90
4187;DHT22;2107;52.306;10.484;2022-07-23T04:44:13;14.50;99.90
4187;DHT22;2107;52.306;10.484;2022-07-23T04:46:40;14.60;99.90
4187;DHT22;2107;52.306;10.484;2022-07-23T04:49:08;14.50;99.90
4187;DHT22;2107;52.306;10.484;2022-07-23T04:51:35;14.40;99.90
4187;DHT22;2107;52.306;10.484;2022-07-23T04:54:02;14.60;99.90
4187;DHT22;2107;52.306;10.484;2022-07-23T04:56:29;14.60;99.90
4187;DHT22;2107;52.306;10.484;2022-07-23T04:58:56;14.60;99.90
4187;DHT22;2107;52.306;10.484;2022-07-23T05:01:23;14.50;99.90
4187;DHT22;2107;52.306;10.484;2022-07-23T05:03:50;14.50;99.90
4187;DHT22;2107;52.306;10.484;2022-07-23T05:06:18;14.70;99.90
4187;DHT22;2107;52.306;10.484;2022-07-23T05:08:45;14.80;99.90
4187;DHT22;2107;52.306;10.484;2022-07-23T05:11:12;15.00;99.90
4187;DHT22;2107;52.306;10.484;2022-07-23T05:13:39;15.10;99.90
4187;DHT22;2107;52.306;10.484;2022-07-23T05:16:06;15.10;99.90
4187;DHT22;2107;52.306;10.484;2022-07-23T05:18:33;15.00;99.90
4187;DHT22;2107;52.306;10.484;2022-07-23T05:21:00;15.00;99.90
4187;DHT22;2107;52.306;10.484;2022-07-23T05:23:28;15.10;99.90
4187;DHT22;2107;52.306;10.484;2022-07-23T05:25:55;15.20;99.90
4187;DHT22;2107;52.306;10.484;2022-07-23T05:28:22;15.20;99.90
4187;DHT22;2107;52.306;10.484;2022-07-23T05:30:49;15.20;99.90
4187;DHT22;2107;52.306;10.484;2022-07-23T05:33:18;15.30;99.90
4187;DHT22;2107;52.306;10.484;2022-07-23T05:35:45;15.30;99.90
4187;DHT22;2107;52.306;10.484;2022-07-23T05:38:12;15.50;99.90
4187;DHT22;2107;52.306;10.484;2022-07-23T05:40:41;15.50;99.90
4187;DHT22;2107;52.306;10.484;2022-07-23T05:43:08;15.30;99.90
4187;DHT22;2107;52.306;10.484;2022-07-23T05:45:34;15.40;99.90
4187;DHT22;2107;52.306;10.484;2022-07-23T05:48:01;15.40;99.90
4187;DHT22;2107;52.306;10.484;2022-07-23T05:50:29;15.40;99.90
4187;DHT22;2107;52.306;10.484;2022-07-23T05:52:56;15.40;99.90
4187;DHT22;2107;52.306;10.484;2022-07-23T05:55:23;16.10;99.90
4187;DHT22;2107;52.306;10.484;2022-07-23T05:57:51;16.60;99.90
4187;DHT22;2107;52.306;10.484;2022-07-23T06:00:18;17.80;99.90
4187;DHT22;2107;52.306;10.484;2022-07-23T06:02:45;18.00;99.90
4187;DHT22;2107;52.306;10.484;2022-07-23T06:05:12;18.20;99.90
4187;DHT22;2107;52.306;10.484;2022-07-23T06:07:38;18.50;99.90
4187;DHT22;2107;52.306;10.484;2022-07-23T06:10:06;19.10;99.90
4187;DHT22;2107;52.306;10.484;2022-07-23T06:12:34;19.90;99.90
4187;DHT22;2107;52.306;10.484;2022-07-23T06:15:03;20.80;99.90
4187;DHT22;2107;52.306;10.484;2022-07-23T06:17:30;21.40;99.90
4187;DHT22;2107;52.306;10.484;2022-07-23T06:19:57;21.50;99.90
4187;DHT22;2107;52.306;10.484;2022-07-23T06:22:24;22.40;99.90
4187;DHT22;2107;52.306;10.484;2022-07-23T06:24:51;23.00;99.90
4187;DHT22;2107;52.306;10.484;2022-07-23T06:27:18;23.20;99.90
4187;DHT22;2107;52.306;10.484;2022-07-23T06:29:45;23.70;99.90
4187;DHT22;2107;52.306;10.484;2022-07-23T06:32:14;23.20;99.90
4187;DHT22;2107;52.306;10.484;2022-07-23T06:34:41;23.60;99.90
4187;DHT22;2107;52.306;10.484;2022-07-23T06:37:08;24.00;99.90
4187;DHT22;2107;52.306;10.484;2022-07-23T06:39:35;24.10;99.90
4187;DHT22;2107;52.306;10.484;2022-07-23T06:42:02;24.60;99.90
4187;DHT22;2107;52.306;10.484;2022-07-23T06:44:29;24.70;99.90
4187;DHT22;2107;52.306;10.484;2022-07-23T06:46:56;25.00;99.90
4187;DHT22;2107;52.306;10.484;2022-07-23T06:49:24;24.60;99.90
4187;DHT22;2107;52.306;10.484;2022-07-23T06:51:51;24.70;99.90
4187;DHT22;2107;52.306;10.484;2022-07-23T06:54:18;25.10;99.90
4187;DHT22;2107;52.306;10.484;2022-07-23T06:56:45;25.60;99.90
4187;DHT22;2107;52.306;10.484;2022-07-23T06:59:12;25.70;99.90
4187;DHT22;2107;52.306;10.484;2022-07-23T07:01:39;26.00;99.90
4187;DHT22;2107;52.306;10.484;2022-07-23T07:04:06;25.90;99.90
4187;DHT22;2107;52.306;10.484;2022-07-23T07:06:34;26.40;99.90
4187;DHT22;2107;52.306;10.484;2022-07-23T07:09:01;25.80;99.90
4187;DHT22;2107;52.306;10.484;2022-07-23T07:11:28;25.80;99.90
4187;DHT22;2107;52.306;10.484;2022-07-23T07:13:55;25.90;99.90
4187;DHT22;2107;52.306;10.484;2022-07-23T07:16:22;25.90;99.90
4187;DHT22;2107;52.306;10.484;2022-07-23T07:18:49;25.90;99.90
4187;DHT22;2107;52.306;10.484;2022-07-23T07:21:16;26.30;99.90
4187;DHT22;2107;52.306;10.484;2022-07-23T07:23:44;26.30;99.90
4187;DHT22;2107;52.306;10.484;2022-07-23T07:26:11;26.30;1.00
4187;DHT22;2107;52.306;10.484;2022-07-23T07:28:38;26.10;1.00
4187;DHT22;2107;52.306;10.484;2022-07-23T07:31:07;25.20;99.90
4187;DHT22;2107;52.306;10.484;2022-07-23T07:33:35;24.90;99.90
4187;DHT22;2107;52.306;10.484;2022-07-23T07:36:02;25.20;99.90
4187;DHT22;2107;52.306;10.484;2022-07-23T07:38:29;25.40;99.90
4187;DHT22;2107;52.306;10.484;2022-07-23T07:40:58;25.90;99.90
4187;DHT22;2107;52.306;10.484;2022-07-23T07:43:25;26.40;99.90
4187;DHT22;2107;52.306;10.484;2022-07-23T07:45:52;26.40;99.90
4187;DHT22;2107;52.306;10.484;2022-07-23T07:48:18;26.40;99.90
4187;DHT22;2107;52.306;10.484;2022-07-23T07:50:45;26.90;99.90
4187;DHT22;2107;52.306;10.484;2022-07-23T07:53:12;26.20;99.90
4187;DHT22;2107;52.306;10.484;2022-07-23T07:55:39;26.30;99.90
4187;DHT22;2107;52.306;10.484;2022-07-23T07:58:08;26.20;99.90
4187;DHT22;2107;52.306;10.484;2022-07-23T08:00:35;25.70;99.90
4187;DHT22;2107;52.306;10.484;2022-07-23T08:03:02;25.40;99.90
4187;DHT22;2107;52.306;10.484;2022-07-23T08:05:30;25.40;99.90
4187;DHT22;2107;52.306;10.484;2022-07-23T08:07:58;25.50;99.90
4187;DHT22;2107;52.306;10.484;2022-07-23T08:10:26;25.80;99.90
4187;DHT22;2107;52.306;10.484;2022-07-23T08:12:55;26.10;99.90
4187;DHT22;2107;52.306;10.484;2022-07-23T08:15:24;26.10;99.90
4187;DHT22;2107;52.306;10.484;2022-07-23T08:17:51;25.80;99.90
4187;DHT22;2107;52.306;10.484;2022-07-23T08:20:21;25.90;99.90
4187;DHT22;2107;52.306;10.484;2022-07-23T08:22:50;26.30;99.90
4187;DHT22;2107;52.306;10.484;2022-07-23T08:25:21;27.00;99.90
4187;DHT22;2107;52.306;10.484;2022-07-23T08:27:48;27.30;99.90
4187;DHT22;2107;52.306;10.484;2022-07-23T08:30:16;27.00;99.90
4187;DHT22;2107;52.306;10.484;2022-07-23T08:33:00;26.40;99.90
4187;DHT22;2107;52.306;10.484;2022-07-23T08:35:28;26.20;99.90
4187;DHT22;2107;52.306;10.484;2022-07-23T08:37:56;25.70;99.90
4187;DHT22;2107;52.306;10.484;2022-07-23T08:40:25;25.20;99.90
4187;DHT22;2107;52.306;10.484;2022-07-23T08:42:52;25.20;99.90
4187;DHT22;2107;52.306;10.484;2022-07-23T08:45:22;24.60;99.90
4187;DHT22;2107;52.306;10.484;2022-07-23T08:47:50;24.50;99.90
4187;DHT22;2107;52.306;10.484;2022-07-23T08:50:20;24.70;99.90
4187;DHT22;2107;52.306;10.484;2022-07-23T08:52:48;25.00;99.90
4187;DHT22;2107;52.306;10.484;2022-07-23T08:55:16;25.60;99.90
4187;DHT22;2107;52.306;10.484;2022-07-23T08:57:43;25.60;99.90
4187;DHT22;2107;52.306;10.484;2022-07-23T09:00:12;25.40;99.90
4187;DHT22;2107;52.306;10.484;2022-07-23T09:02:40;24.80;99.90
4187;DHT22;2107;52.306;10.484;2022-07-23T09:05:08;24.90;99.90
4187;DHT22;2107;52.306;10.484;2022-07-23T09:07:38;25.20;99.90
4187;DHT22;2107;52.306;10.484;2022-07-23T09:10:25;25.80;99.90
4187;DHT22;2107;52.306;10.484;2022-07-23T09:12:52;25.90;99.90
4187;DHT22;2107;52.306;10.484;2022-07-23T09:15:20;26.00;99.90
4187;DHT22;2107;52.306;10.484;2022-07-23T09:17:47;26.70;99.90
4187;DHT22;2107;52.306;10.484;2022-07-23T09:20:16;27.60;99.90
4187;DHT22;2107;52.306;10.484;2022-07-23T09:22:47;28.00;99.90
4187;DHT22;2107;52.306;10.484;2022-07-23T09:25:15;27.70;99.90
4187;DHT22;2107;52.306;10.484;2022-07-23T09:27:52;27.20;99.90
4187;DHT22;2107;52.306;10.484;2022-07-23T09:30:20;26.40;99.90
4187;DHT22;2107;52.306;10.484;2022-07-23T09:33:08;26.50;99.90
4187;DHT22;2107;52.306;10.484;2022-07-23T09:35:46;26.10;99.90
4187;DHT22;2107;52.306;10.484;2022-07-23T09:38:15;25.70;99.90
4187;DHT22;2107;52.306;10.484;2022-07-23T09:40:43;26.10;99.90
4187;DHT22;2107;52.306;10.484;2022-07-23T09:43:11;26.50;99.90
4187;DHT22;2107;52.306;10.484;2022-07-23T09:45:38;27.10;99.90
4187;DHT22;2107;52.306;10.484;2022-07-23T09:48:12;27.30;99.90
4187;DHT22;2107;52.306;10.484;2022-07-23T09:50:40;27.80;99.90
4187;DHT22;2107;52.306;10.484;2022-07-23T09:53:08;28.60;99.90
4187;DHT22;2107;52.306;10.484;2022-07-23T09:55:37;28.50;99.90
4187;DHT22;2107;52.306;10.484;2022-07-23T09:58:05;27.50;99.90
4187;DHT22;2107;52.306;10.484;2022-07-23T10:00:34;27.10;99.90
4187;DHT22;2107;52.306;10.484;2022-07-23T10:03:01;27.10;99.90
4187;DHT22;2107;52.306;10.484;2022-07-23T10:05:30;26.10;99.90
4187;DHT22;2107;52.306;10.484;2022-07-23T10:07:59;26.60;99.90
4187;DHT22;2107;52.306;10.484;2022-07-23T10:10:28;27.30;99.90
4187;DHT22;2107;52.306;10.484;2022-07-23T10:12:58;27.50;99.90
4187;DHT22;2107;52.306;10.484;2022-07-23T10:15:42;27.70;99.90
4187;DHT22;2107;52.306;10.484;2022-07-23T10:18:11;27.50;99.90
4187;DHT22;2107;52.306;10.484;2022-07-23T10:20:38;27.10;99.90
4187;DHT22;2107;52.306;10.484;2022-07-23T10:23:12;26.70;99.90
4187;DHT22;2107;52.306;10.484;2022-07-23T10:25:49;27.20;99.90
4187;DHT22;2107;52.306;10.484;2022-07-23T10:28:43;27.60;99.90
4187;DHT22;2107;52.306;10.484;2022-07-23T10:31:20;28.30;99.90
4187;DHT22;2107;52.306;10.484;2022-07-23T10:33:56;28.50;99.90
4187;DHT22;2107;52.306;10.484;2022-07-23T10:36:31;28.40;99.90
4187;DHT22;2107;52.306;10.484;2022-07-23T10:39:08;28.30;99.90
4187;DHT22;2107;52.306;10.484;2022-07-23T10:41:39;27.90;99.90
4187;DHT22;2107;52.306;10.484;2022-07-23T10:44:09;27.60;99.90
4187;DHT22;2107;52.306;10.484;2022-07-23T10:46:46;27.90;99.90
4187;DHT22;2107;52.306;10.484;2022-07-23T10:49:22;28.00;99.90
4187;DHT22;2107;52.306;10.484;2022-07-23T10:52:18;28.10;99.90
4187;DHT22;2107;52.306;10.484;2022-07-23T10:54:46;27.70;99.90
4187;DHT22;2107;52.306;10.484;2022-07-23T10:57:16;28.40;99.90
4187;DHT22;2107;52.306;10.484;2022-07-23T11:00:14;29.20;99.90
4187;DHT22;2107;52.306;10.484;2022-07-23T11:02:43;28.80;99.90
4187;DHT22;2107;52.306;10.484;2022-07-23T11:05:12;28.40;99.90
4187;DHT22;2107;52.306;10.484;2022-07-23T11:08:10;28.50;99.90
4187;DHT22;2107;52.306;10.484;2022-07-23T11:10:41;28.10;99.90
4187;DHT22;2107;52.306;10.484;2022-07-23T11:13:38;28.10;99.90
4187;DHT22;2107;52.306;10.484;2022-07-23T11:16:15;28.20;99.90
4187;DHT22;2107;52.306;10.484;2022-07-23T11:19:06;28.00;99.90
4187;DHT22;2107;52.306;10.484;2022-07-23T11:21:49;27.80;99.90
4187;DHT22;2107;52.306;10.484;2022-07-23T11:24:21;26.90;99.90
4187;DHT22;2107;52.306;10.484;2022-07-23T11:26:59;27.50;99.90
4187;DHT22;2107;52.306;10.484;2022-07-23T11:29:47;28.20;99.90
4187;DHT22;2107;52.306;10.484;2022-07-23T11:32:39;28.50;99.90
4187;DHT22;2107;52.306;10.484;2022-07-23T11:35:25;28.80;99.90
4187;DHT22;2107;52.306;10.484;2022-07-23T11:37:54;29.50;99.90
4187;DHT22;2107;52.306;10.484;2022-07-23T11:40:24;29.60;99.90
4187;DHT22;2107;52.306;10.484;2022-07-23T11:43:03;29.70;99.90
4187;DHT22;2107;52.306;10.484;2022-07-23T11:45:33;29.40;99.90
4187;DHT22;2107;52.306;10.484;2022-07-23T11:48:02;29.00;99.90
4187;DHT22;2107;52.306;10.484;2022-07-23T11:50:30;28.90;99.90
4187;DHT22;2107;52.306;10.484;2022-07-23T11:52:57;28.70;99.90
4187;DHT22;2107;52.306;10.484;2022-07-23T11:55:24;28.60;99.90
4187;DHT22;2107;52.306;10.484;2022-07-23T11:57:52;27.90;99.90
4187;DHT22;2107;52.306;10.484;2022-07-23T12:00:21;28.10;99.90
4187;DHT22;2107;52.306;10.484;2022-07-23T12:02:50;27.80;99.90
4187;DHT22;2107;52.306;10.484;2022-07-23T12:05:20;27.30;99.90
4187;DHT22;2107;52.306;10.484;2022-07-23T12:07:48;26.50;99.90
4187;DHT22;2107;52.306;10.484;2022-07-23T12:10:18;27.10;99.90
4187;DHT22;2107;52.306;10.484;2022-07-23T12:12:47;27.00;99.90
4187;DHT22;2107;52.306;10.484;2022-07-23T12:15:16;27.20;99.90
4187;DHT22;2107;52.306;10.484;2022-07-23T12:17:45;27.30;99.90
4187;DHT22;2107;52.306;10.484;2022-07-23T12:20:15;27.60;99.90
4187;DHT22;2107;52.306;10.484;2022-07-23T12:22:45;28.00;99.90
4187;DHT22;2107;52.306;10.484;2022-07-23T12:25:13;28.50;99.90
4187;DHT22;2107;52.306;10.484;2022-07-23T12:27:41;28.50;99.90
4187;DHT22;2107;52.306;10.484;2022-07-23T12:30:21;28.20;99.90
4187;DHT22;2107;52.306;10.484;2022-07-23T12:32:50;27.90;99.90
4187;DHT22;2107;52.306;10.484;2022-07-23T12:35:18;27.90;99.90
4187;DHT22;2107;52.306;10.484;2022-07-23T12:37:48;27.70;99.90
4187;DHT22;2107;52.306;10.484;2022-07-23T12:40:28;27.40;99.90
4187;DHT22;2107;52.306;10.484;2022-07-23T12:42:57;27.90;99.90
4187;DHT22;2107;52.306;10.484;2022-07-23T12:45:25;29.10;99.90
4187;DHT22;2107;52.306;10.484;2022-07-23T12:48:05;29.50;99.90
4187;DHT22;2107;52.306;10.484;2022-07-23T12:50:38;29.70;99.90
4187;DHT22;2107;52.306;10.484;2022-07-23T12:53:09;30.00;99.90
4187;DHT22;2107;52.306;10.484;2022-07-23T12:55:38;29.70;99.90
4187;DHT22;2107;52.306;10.484;2022-07-23T12:58:08;30.10;99.90
4187;DHT22;2107;52.306;10.484;2022-07-23T13:01:03;30.20;99.90
4187;DHT22;2107;52.306;10.484;2022-07-23T13:03:34;29.10;99.90
4187;DHT22;2107;52.306;10.484;2022-07-23T13:06:03;29.70;99.90
4187;DHT22;2107;52.306;10.484;2022-07-23T13:08:33;30.20;99.90
4187;DHT22;2107;52.306;10.484;2022-07-23T13:11:01;31.10;99.90
4187;DHT22;2107;52.306;10.484;2022-07-23T13:13:29;31.20;99.90
4187;DHT22;2107;52.306;10.484;2022-07-23T13:15:57;32.50;99.90
4187;DHT22;2107;52.306;10.484;2022-07-23T13:18:25;32.40;99.90
4187;DHT22;2107;52.306;10.484;2022-07-23T13:20:53;31.00;99.90
4187;DHT22;2107;52.306;10.484;2022-07-23T13:23:20;31.80;99.90
4187;DHT22;2107;52.306;10.484;2022-07-23T13:25:49;32.50;99.90
4187;DHT22;2107;52.306;10.484;2022-07-23T13:28:17;31.60;99.90
4187;DHT22;2107;52.306;10.484;2022-07-23T13:30:45;31.20;99.90
4187;DHT22;2107;52.306;10.484;2022-07-23T13:33:15;32.50;99.90
4187;DHT22;2107;52.306;10.484;2022-07-23T13:35:43;31.90;99.90
4187;DHT22;2107;52.306;10.484;2022-07-23T13:38:10;30.20;99.90
4187;DHT22;2107;52.306;10.484;2022-07-23T13:40:39;31.10;99.90
4187;DHT22;2107;52.306;10.484;2022-07-23T13:43:10;31.80;99.90
4187;DHT22;2107;52.306;10.484;2022-07-23T13:45:38;33.10;99.90
4187;DHT22;2107;52.306;10.484;2022-07-23T13:48:06;34.30;99.90
4187;DHT22;2107;52.306;10.484;2022-07-23T13:50:33;32.80;99.90
4187;DHT22;2107;52.306;10.484;2022-07-23T13:53:01;33.20;99.90
4187;DHT22;2107;52.306;10.484;2022-07-23T13:55:29;34.50;99.90
4187;DHT22;2107;52.306;10.484;2022-07-23T13:57:56;33.90;99.90
4187;DHT22;2107;52.306;10.484;2022-07-23T14:00:26;33.80;99.90
4187;DHT22;2107;52.306;10.484;2022-07-23T14:02:53;34.90;99.90
4187;DHT22;2107;52.306;10.484;2022-07-23T14:05:21;36.00;99.90
4187;DHT22;2107;52.306;10.484;2022-07-23T14:07:48;35.10;99.90
4187;DHT22;2107;52.306;10.484;2022-07-23T14:10:17;34.10;99.90
4187;DHT22;2107;52.306;10.484;2022-07-23T14:12:46;32.70;99.90
4187;DHT22;2107;52.306;10.484;2022-07-23T14:15:14;32.50;99.90
4187;DHT22;2107;52.306;10.484;2022-07-23T14:17:43;33.40;99.90
4187;DHT22;2107;52.306;10.484;2022-07-23T14:20:12;35.20;99.90
4187;DHT22;2107;52.306;10.484;2022-07-23T14:22:39;35.20;99.90
4187;DHT22;2107;52.306;10.484;2022-07-23T14:25:08;34.00;99.90
4187;DHT22;2107;52.306;10.484;2022-07-23T14:27:35;34.20;99.90
4187;DHT22;2107;52.306;10.484;2022-07-23T14:30:04;34.10;99.90
4187;DHT22;2107;52.306;10.484;2022-07-23T14:32:32;33.30;99.90
4187;DHT22;2107;52.306;10.484;2022-07-23T14:35:00;33.40;99.90
4187;DHT22;2107;52.306;10.484;2022-07-23T14:37:28;32.50;99.90
4187;DHT22;2107;52.306;10.484;2022-07-23T14:39:56;33.40;99.90
4187;DHT22;2107;52.306;10.484;2022-07-23T14:42:23;33.90;99.90
4187;DHT22;2107;52.306;10.484;2022-07-23T14:44:50;34.90;99.90
4187;DHT22;2107;52.306;10.484;2022-07-23T14:47:17;35.00;99.90
4187;DHT22;2107;52.306;10.484;2022-07-23T14:49:44;35.30;99.90
4187;DHT22;2107;52.306;10.484;2022-07-23T14:52:12;35.00;99.90
4187;DHT22;2107;52.306;10.484;2022-07-23T14:54:39;32.50;99.90
4187;DHT22;2107;52.306;10.484;2022-07-23T14:57:06;32.60;99.90
4187;DHT22;2107;52.306;10.484;2022-07-23T14:59:35;33.00;99.90
4187;DHT22;2107;52.306;10.484;2022-07-23T15:02:02;33.90;99.90
4187;DHT22;2107;52.306;10.484;2022-07-23T15:04:29;35.30;99.90
4187;DHT22;2107;52.306;10.484;2022-07-23T15:06:56;35.30;99.90
4187;DHT22;2107;52.306;10.484;2022-07-23T15:09:24;35.80;99.90
4187;DHT22;2107;52.306;10.484;2022-07-23T15:11:51;36.00;99.90
4187;DHT22;2107;52.306;10.484;2022-07-23T15:14:18;35.90;99.90
4187;DHT22;2107;52.306;10.484;2022-07-23T15:16:45;34.70;99.90
4187;DHT22;2107;52.306;10.484;2022-07-23T15:19:12;34.80;99.90
4187;DHT22;2107;52.306;10.484;2022-07-23T15:21:39;34.90;99.90
4187;DHT22;2107;52.306;10.484;2022-07-23T15:24:06;35.10;99.90
4187;DHT22;2107;52.306;10.484;2022-07-23T15:26:35;35.30;99.90
4187;DHT22;2107;52.306;10.484;2022-07-23T15:29:02;35.40;99.90
4187;DHT22;2107;52.306;10.484;2022-07-23T15:31:31;35.60;99.90
4187;DHT22;2107;52.306;10.484;2022-07-23T15:33:59;35.30;99.90
4187;DHT22;2107;52.306;10.484;2022-07-23T15:36:26;36.00;99.90
4187;DHT22;2107;52.306;10.484;2022-07-23T15:38:52;36.00;99.90
4187;DHT22;2107;52.306;10.484;2022-07-23T15:41:19;36.00;99.90
4187;DHT22;2107;52.306;10.484;2022-07-23T15:43:48;36.40;99.90
4187;DHT22;2107;52.306;10.484;2022-07-23T15:46:16;35.10;99.90
4187;DHT22;2107;52.306;10.484;2022-07-23T15:48:43;34.30;99.90
4187;DHT22;2107;52.306;10.484;2022-07-23T15:51:11;34.80;99.90
4187;DHT22;2107;52.306;10.484;2022-07-23T15:53:38;34.90;99.90
4187;DHT22;2107;52.306;10.484;2022-07-23T15:56:06;34.70;99.90
4187;DHT22;2107;52.306;10.484;2022-07-23T15:58:33;32.90;99.90